createdAt,value
2018-03-26T00:02:16.539Z,31.70
2018-03-26T00:04:44.058Z,30.60
2018-03-26T00:07:11.616Z,31.03
2018-03-26T00:09:39.165Z,30.00
2018-03-26T00:12:06.692Z,30.37
2018-03-26T00:14:34.248Z,31.37
2018-03-26T00:17:01.780Z,30.10
2018-03-26T00:19:29.310Z,31.27
2018-03-26T00:21:56.836Z,30.00
2018-03-26T00:24:24.358Z,29.00
2018-03-26T00:26:51.878Z,29.87
2018-03-26T00:29:19.410Z,29.97
2018-03-26T00:31:46.935Z,30.10
2018-03-26T00:34:14.465Z,29.57
2018-03-26T00:36:41.995Z,29.93
2018-03-26T00:39:09.524Z,27.63
2018-03-26T00:41:37.070Z,30.40
2018-03-26T00:44:04.598Z,29.23
2018-03-26T00:46:32.127Z,29.83
2018-03-26T00:48:59.653Z,29.63
2018-03-26T00:51:27.193Z,29.13
2018-03-26T00:53:54.713Z,30.30
2018-03-26T00:56:22.224Z,29.93
2018-03-26T00:58:49.760Z,30.13
2018-03-26T01:01:17.283Z,30.70
2018-03-26T01:03:44.815Z,29.33
2018-03-26T01:06:12.352Z,29.40
2018-03-26T01:08:39.875Z,29.30
2018-03-26T01:11:07.450Z,29.67
2018-03-26T01:13:34.977Z,30.17
2018-03-26T01:16:02.510Z,31.87
2018-03-26T01:18:30.035Z,29.93
2018-03-26T01:20:57.555Z,30.73
2018-03-26T01:23:25.069Z,29.47
2018-03-26T01:25:52.622Z,29.97
2018-03-26T01:28:20.154Z,31.90
2018-03-26T01:30:47.666Z,29.23
2018-03-26T01:33:15.203Z,30.07
2018-03-26T01:35:42.735Z,29.27
2018-03-26T01:38:10.272Z,29.00
2018-03-26T01:40:37.803Z,29.27
2018-03-26T01:43:05.334Z,27.47
2018-03-26T01:45:32.880Z,26.97
2018-03-26T01:48:00.413Z,26.30
2018-03-26T01:50:27.938Z,27.40
2018-03-26T01:52:55.469Z,26.70
2018-03-26T01:55:23.008Z,26.33
2018-03-26T01:57:50.546Z,25.03
2018-03-26T02:00:18.091Z,24.87
2018-03-26T02:02:45.634Z,23.47
2018-03-26T02:05:13.154Z,25.07
2018-03-26T02:07:40.683Z,22.50
2018-03-26T02:10:08.202Z,24.60
2018-03-26T02:12:35.771Z,24.43
2018-03-26T02:15:03.331Z,24.00
2018-03-26T02:17:30.870Z,23.40
2018-03-26T02:19:58.402Z,23.90
2018-03-26T02:22:25.945Z,25.57
2018-03-26T02:24:53.474Z,25.00
2018-03-26T02:27:21.009Z,24.37
2018-03-26T02:29:48.592Z,26.07
2018-03-26T02:32:16.128Z,24.07
2018-03-26T02:34:43.662Z,23.33
2018-03-26T02:37:11.198Z,25.37
2018-03-26T02:39:38.714Z,25.17
2018-03-26T02:42:06.237Z,25.43
2018-03-26T02:44:33.798Z,25.10
2018-03-26T02:47:01.350Z,25.63
2018-03-26T02:49:28.883Z,26.17
2018-03-26T02:51:56.404Z,27.00
2018-03-26T02:54:23.947Z,26.47
2018-03-26T02:56:51.460Z,24.97
2018-03-26T02:59:19.001Z,25.13
2018-03-26T03:01:46.540Z,26.10
2018-03-26T03:04:14.088Z,27.50
2018-03-26T03:06:41.618Z,27.40
2018-03-26T03:09:09.168Z,26.40
2018-03-26T03:11:36.697Z,26.20
2018-03-26T03:14:04.212Z,25.40
2018-03-26T03:16:31.750Z,25.77
2018-03-26T03:18:59.292Z,25.13
2018-03-26T03:21:26.813Z,26.33
2018-03-26T03:23:54.361Z,25.20
2018-03-26T03:26:21.882Z,26.50
2018-03-26T03:28:49.481Z,25.67
2018-03-26T03:31:17.013Z,25.87
2018-03-26T03:33:44.549Z,25.27
2018-03-26T03:36:12.071Z,25.80
2018-03-26T03:38:39.618Z,25.40
2018-03-26T03:41:07.145Z,27.57
2018-03-26T03:43:34.670Z,25.87
2018-03-26T03:46:02.204Z,25.83
2018-03-26T03:48:29.723Z,26.40
2018-03-26T03:50:57.303Z,28.03
2018-03-26T03:53:24.809Z,25.67
2018-03-26T03:55:52.368Z,26.57
2018-03-26T03:58:19.902Z,27.50
2018-03-26T04:00:47.421Z,26.97
2018-03-26T04:03:14.947Z,27.03
2018-03-26T04:05:42.501Z,25.90
2018-03-26T04:08:10.025Z,26.80
2018-03-26T04:10:37.544Z,26.83
2018-03-26T04:13:05.074Z,26.50
2018-03-26T04:15:32.606Z,26.70
2018-03-26T04:18:00.136Z,27.30
2018-03-26T04:20:27.664Z,27.00
2018-03-26T04:22:55.236Z,26.83
2018-03-26T04:25:22.815Z,26.83
2018-03-26T04:27:50.341Z,26.93
2018-03-26T04:30:17.918Z,27.57
2018-03-26T04:32:45.451Z,27.10
2018-03-26T04:35:12.980Z,26.77
2018-03-26T04:37:40.511Z,27.50
2018-03-26T04:40:08.030Z,27.20
2018-03-26T04:42:35.554Z,26.47
2018-03-26T04:45:03.104Z,25.70
2018-03-26T04:47:30.709Z,26.17
2018-03-26T04:49:58.249Z,26.27
2018-03-26T04:52:25.766Z,30.00
2018-03-26T04:54:53.290Z,31.87
2018-03-26T04:57:20.820Z,28.13
2018-03-26T04:59:48.368Z,28.57
2018-03-26T05:02:15.927Z,27.40
2018-03-26T05:04:43.426Z,26.53
2018-03-26T05:07:10.962Z,27.37
2018-03-26T05:09:38.486Z,26.77
2018-03-26T05:12:06.025Z,28.27
2018-03-26T05:14:33.536Z,28.23
2018-03-26T05:17:01.067Z,26.90
2018-03-26T05:19:28.607Z,27.47
2018-03-26T06:43:53.097Z,29.17
2018-03-26T06:46:20.610Z,30.57
2018-03-26T06:48:48.125Z,31.37
2018-03-26T06:51:15.638Z,31.20
2018-03-26T06:53:43.318Z,31.37
2018-03-26T06:56:10.841Z,30.93
2018-03-26T06:58:38.402Z,30.03
2018-03-26T07:01:05.926Z,31.27
2018-03-26T07:03:33.454Z,30.70
2018-03-26T07:06:00.977Z,29.93
2018-03-26T07:08:28.511Z,29.20
2018-03-26T07:10:56.031Z,28.73
2018-03-26T07:13:23.549Z,28.23
2018-03-26T07:15:51.083Z,29.30
2018-03-26T07:18:18.610Z,28.07
2018-03-26T07:20:46.135Z,28.90
2018-03-26T07:23:13.654Z,33.83
2018-03-26T07:25:41.170Z,29.60
2018-03-26T07:28:08.720Z,29.03
2018-03-26T07:30:36.273Z,29.27
2018-03-26T07:33:03.792Z,27.60
2018-03-26T07:35:31.333Z,26.83
2018-03-26T07:37:58.858Z,28.07
2018-03-26T07:40:26.401Z,28.03
2018-03-26T07:42:53.925Z,29.23
2018-03-26T07:45:21.449Z,28.83
2018-03-26T07:47:48.979Z,27.53
2018-03-26T07:50:16.504Z,28.90
2018-03-26T07:52:44.041Z,28.00
2018-03-26T07:55:11.569Z,28.67
2018-03-26T07:57:39.087Z,27.97
2018-03-26T08:00:06.618Z,28.53
2018-03-26T08:02:34.145Z,27.30
2018-03-26T08:05:01.662Z,27.33
2018-03-26T08:07:29.195Z,27.63
2018-03-26T08:09:56.778Z,26.90
2018-03-26T08:12:24.266Z,30.00
2018-03-26T08:14:51.808Z,34.33
2018-03-26T08:17:19.374Z,30.40
2018-03-26T08:19:46.880Z,32.30
2018-03-26T08:22:14.392Z,32.33
2018-03-26T08:24:41.913Z,33.07
2018-03-26T08:27:09.445Z,34.70
2018-03-26T08:29:36.958Z,33.93
2018-03-26T08:32:04.475Z,33.53
2018-03-26T08:34:31.997Z,33.87
2018-03-26T08:36:59.540Z,34.07
2018-03-26T08:39:27.066Z,35.27
2018-03-26T08:41:54.583Z,33.93
2018-03-26T08:44:22.111Z,33.63
2018-03-26T08:46:49.640Z,34.40
2018-03-26T08:49:17.178Z,34.00
2018-03-26T08:51:44.696Z,35.70
2018-03-26T08:54:12.223Z,35.83
2018-03-26T08:56:39.754Z,35.93
2018-03-26T08:59:07.280Z,35.70
2018-03-26T09:01:34.819Z,36.77
2018-03-26T09:04:02.370Z,36.47
2018-03-26T09:06:29.889Z,37.97
2018-03-26T09:08:57.418Z,35.83
2018-03-26T09:11:24.940Z,37.17
2018-03-26T09:13:52.466Z,38.30
2018-03-26T09:16:19.988Z,38.13
2018-03-26T09:18:47.521Z,37.97
2018-03-26T09:21:15.058Z,37.87
2018-03-26T09:23:42.734Z,37.83
2018-03-26T09:26:10.262Z,38.07
2018-03-26T09:28:37.791Z,39.20
2018-03-26T09:31:05.364Z,38.13
2018-03-26T09:33:32.896Z,38.73
2018-03-26T09:36:00.538Z,36.90
2018-03-26T09:38:28.063Z,39.63
2018-03-26T09:40:55.591Z,37.37
2018-03-26T09:43:23.110Z,39.63
2018-03-26T09:45:50.633Z,38.57
2018-03-26T09:48:18.168Z,39.40
2018-03-26T09:50:45.695Z,40.17
2018-03-26T09:53:13.259Z,38.17
2018-03-26T09:55:40.770Z,39.60
2018-03-26T09:58:08.337Z,39.60
2018-03-26T10:00:41.534Z,38.87
2018-03-26T10:03:09.053Z,40.83
2018-03-26T10:05:36.566Z,40.60
2018-03-26T10:08:04.163Z,39.23
2018-03-26T10:10:31.706Z,39.37
2018-03-26T10:12:59.261Z,40.57
2018-03-26T10:15:26.818Z,40.63
2018-03-26T10:17:54.341Z,40.00
2018-03-26T10:20:21.869Z,41.13
2018-03-26T10:22:49.399Z,41.67
2018-03-26T10:25:16.971Z,41.70
2018-03-26T10:27:45.274Z,40.17
2018-03-26T10:30:12.795Z,39.90
2018-03-26T10:32:40.326Z,41.17
2018-03-26T10:35:07.855Z,42.07
2018-03-26T10:37:35.370Z,41.80
2018-03-26T10:40:02.899Z,41.13
2018-03-26T10:42:30.436Z,42.63
2018-03-26T10:44:57.955Z,42.43
2018-03-26T10:47:25.535Z,42.00
2018-03-26T10:49:53.066Z,40.97
2018-03-26T10:52:20.598Z,43.00
2018-03-26T10:54:48.139Z,41.67
2018-03-26T10:57:15.675Z,44.97
2018-03-26T10:59:43.210Z,45.27
2018-03-26T11:02:10.725Z,42.53
2018-03-26T11:04:38.245Z,41.93
2018-03-26T11:07:05.764Z,41.50
2018-03-26T11:09:33.285Z,38.93
2018-03-26T11:12:00.807Z,36.83
2018-03-26T12:36:25.326Z,41.97
2018-03-26T12:38:52.858Z,35.67
2018-03-26T12:41:20.404Z,31.50
2018-03-26T12:43:47.943Z,29.73
2018-03-26T12:46:27.252Z,36.95
2018-03-26T12:48:54.772Z,33.43
2018-03-26T12:51:34.184Z,31.87
2018-03-26T12:54:01.734Z,30.40
2018-03-26T12:56:29.264Z,27.97
2018-03-26T12:58:56.786Z,28.33
2018-03-26T13:01:36.087Z,26.67
2018-03-26T13:04:03.618Z,27.27
2018-03-26T13:06:31.138Z,26.10
2018-03-26T13:08:58.665Z,22.47
2018-03-26T13:11:26.195Z,22.27
2018-03-26T13:13:53.715Z,21.00
2018-03-26T13:16:21.241Z,21.53
2018-03-26T13:18:48.762Z,18.53
2018-03-26T13:21:16.285Z,18.77
2018-03-26T13:23:43.828Z,18.00
2018-03-26T13:26:11.378Z,18.47
2018-03-26T13:28:38.905Z,19.27
2018-03-26T13:31:06.421Z,18.20
2018-03-26T13:33:33.961Z,18.63
2018-03-26T13:36:01.491Z,17.37
2018-03-26T13:38:29.043Z,16.83
2018-03-26T13:40:56.592Z,17.40
2018-03-26T13:43:24.123Z,17.30
2018-03-26T13:45:51.652Z,14.90
2018-03-26T13:48:19.187Z,12.53
2018-03-26T13:50:46.745Z,13.70
2018-03-26T13:53:14.262Z,12.27
2018-03-26T13:55:41.784Z,12.20
2018-03-26T13:58:09.323Z,12.40
2018-03-26T14:00:36.844Z,12.50
2018-03-26T14:03:04.368Z,13.20
2018-03-26T14:05:31.885Z,12.87
2018-03-26T14:07:59.409Z,13.77
2018-03-26T14:10:38.658Z,13.73
2018-03-26T14:13:18.078Z,13.37
2018-03-26T14:15:57.537Z,12.60
2018-03-26T14:18:25.107Z,12.83
2018-03-26T14:20:52.620Z,11.93
2018-03-26T14:23:20.178Z,11.70
2018-03-26T14:25:47.708Z,11.27
2018-03-26T14:28:15.221Z,11.60
2018-03-26T14:30:42.755Z,12.37
2018-03-26T14:33:10.288Z,11.67
2018-03-26T14:35:44.937Z,11.00
2018-03-26T14:38:12.785Z,11.07
2018-03-26T14:40:40.333Z,11.67
2018-03-26T14:43:07.906Z,10.77
2018-03-26T14:45:35.404Z,11.27
2018-03-26T14:48:02.940Z,12.53
2018-03-26T14:50:30.472Z,11.77
2018-03-26T14:52:57.989Z,11.10
2018-03-26T14:55:25.577Z,10.90
2018-03-26T14:57:53.085Z,12.40
2018-03-26T15:00:20.613Z,11.37
2018-03-26T15:02:48.156Z,11.10
2018-03-26T15:05:15.686Z,10.57
2018-03-26T15:07:43.231Z,9.83
2018-03-26T15:10:10.747Z,10.60
2018-03-26T15:12:38.268Z,10.50
2018-03-26T15:15:05.800Z,10.17
2018-03-26T15:17:33.322Z,10.43
2018-03-26T15:20:00.854Z,8.93
2018-03-26T15:22:28.398Z,8.70
2018-03-26T15:24:55.937Z,7.87
2018-03-26T15:27:23.539Z,7.23
2018-03-26T15:29:51.025Z,6.60
2018-03-26T15:32:18.551Z,7.20
2018-03-26T15:34:46.099Z,6.50
2018-03-26T15:37:13.632Z,6.67
2018-03-26T15:39:41.161Z,7.17
2018-03-26T15:42:08.684Z,7.23
2018-03-26T15:44:36.217Z,6.80
2018-03-26T15:47:03.737Z,6.90
2018-03-26T15:49:31.258Z,6.83
2018-03-26T15:51:58.787Z,7.70
2018-03-26T15:54:26.309Z,6.77
2018-03-26T15:56:53.837Z,6.97
2018-03-26T15:59:21.368Z,6.83
2018-03-26T16:01:48.889Z,6.40
2018-03-26T16:04:16.414Z,7.23
2018-03-26T16:06:43.946Z,7.50
2018-03-26T16:09:11.469Z,7.00
2018-03-26T16:11:38.985Z,6.50
2018-03-26T16:14:06.505Z,7.30
2018-03-26T16:16:34.034Z,7.37
2018-03-26T16:19:01.594Z,7.13
2018-03-26T16:21:29.113Z,7.23
2018-03-26T16:23:56.663Z,6.03
2018-03-26T16:26:24.173Z,6.67
2018-03-26T16:28:51.697Z,7.17
2018-03-26T16:31:19.217Z,6.80
2018-03-26T16:33:46.819Z,7.13
2018-03-26T16:36:14.356Z,7.40
2018-03-26T16:38:41.881Z,7.27
2018-03-26T16:41:09.413Z,7.47
2018-03-26T16:43:36.946Z,7.60
2018-03-26T16:46:04.459Z,7.47
2018-03-26T16:48:31.991Z,7.50
2018-03-26T16:50:59.517Z,7.90
2018-03-26T16:53:27.039Z,8.23
2018-03-26T16:55:54.554Z,7.40
2018-03-26T16:58:22.070Z,6.73
2018-03-26T17:00:49.597Z,7.57
2018-03-26T17:03:17.117Z,7.43
2018-03-26T17:05:44.650Z,7.20
2018-03-26T17:08:12.211Z,7.43
2018-03-26T17:10:39.726Z,7.60
2018-03-26T17:13:07.253Z,8.00
2018-03-26T17:15:34.771Z,7.00
2018-03-26T17:18:02.303Z,7.17
2018-03-26T17:20:29.859Z,7.43
2018-03-26T17:22:57.390Z,6.97
2018-03-26T17:25:24.929Z,7.60
2018-03-26T17:27:52.454Z,7.27
2018-03-26T17:30:19.976Z,7.80
2018-03-26T17:32:47.498Z,6.43
2018-03-26T17:35:15.018Z,7.20
2018-03-26T17:37:42.542Z,7.77
2018-03-26T17:40:10.055Z,7.87
2018-03-26T17:42:37.573Z,8.03
2018-03-26T17:45:05.097Z,7.33
2018-03-26T17:47:32.611Z,6.90
2018-03-26T17:50:00.132Z,6.80
2018-03-26T17:52:27.659Z,7.77
2018-03-26T17:54:55.205Z,7.83
2018-03-26T17:57:22.732Z,7.60
2018-03-26T17:59:50.249Z,7.53
2018-03-26T18:02:17.765Z,7.17
2018-03-26T18:04:45.282Z,6.70
2018-03-26T18:07:12.812Z,7.83
2018-03-26T18:09:40.364Z,8.00
2018-03-26T18:12:07.878Z,8.47
2018-03-26T18:14:35.412Z,8.93
2018-03-26T18:17:02.940Z,10.10
2018-03-26T18:19:30.477Z,10.40
2018-03-26T18:21:58.001Z,10.33
2018-03-26T18:24:25.533Z,9.23
2018-03-26T18:26:53.064Z,8.27
2018-03-26T18:29:20.581Z,7.43
2018-03-26T18:31:48.094Z,9.80
2018-03-26T18:34:15.623Z,8.27
2018-03-26T18:36:43.157Z,7.50
2018-03-26T18:39:10.669Z,8.03
2018-03-26T18:41:38.185Z,8.30
2018-03-26T18:44:05.704Z,8.17
2018-03-26T18:46:33.226Z,7.97
2018-03-26T18:49:00.759Z,8.67
2018-03-26T18:51:28.282Z,8.33
2018-03-26T18:53:55.793Z,8.50
2018-03-26T18:56:23.330Z,7.47
2018-03-26T18:58:50.844Z,7.57
2018-03-26T19:01:18.381Z,7.73
2018-03-26T19:03:45.910Z,8.07
2018-03-26T19:06:13.424Z,7.30
2018-03-26T19:08:40.958Z,8.43
2018-03-26T19:11:08.473Z,8.10
2018-03-26T19:13:35.985Z,7.87
2018-03-26T19:16:03.524Z,7.53
2018-03-26T19:18:31.046Z,7.47
2018-03-26T19:20:58.562Z,7.63
2018-03-26T19:23:26.082Z,8.03
2018-03-26T19:25:53.607Z,7.43
2018-03-26T19:28:21.128Z,7.63
2018-03-26T19:30:48.655Z,7.93
2018-03-26T19:33:16.187Z,8.40
2018-03-26T19:35:43.702Z,8.17
2018-03-26T19:38:11.217Z,8.60
2018-03-26T19:40:38.734Z,8.53
2018-03-26T19:43:06.270Z,8.83
2018-03-26T19:45:33.783Z,8.70
2018-03-26T19:48:01.310Z,8.40
2018-03-26T19:50:28.836Z,8.60
2018-03-26T19:52:56.345Z,8.80
2018-03-26T19:55:23.886Z,9.40
2018-03-26T19:57:51.411Z,8.80
2018-03-26T20:00:18.944Z,8.00
2018-03-26T20:02:46.461Z,8.97
2018-03-26T20:05:13.993Z,8.17
2018-03-26T20:07:41.519Z,8.33
2018-03-26T20:10:09.042Z,8.87
2018-03-26T20:12:36.569Z,8.10
2018-03-26T20:15:04.091Z,8.80
2018-03-26T20:17:31.625Z,8.37
2018-03-26T20:19:59.148Z,8.60
2018-03-26T20:22:26.678Z,8.60
2018-03-26T20:24:54.206Z,8.60
2018-03-26T20:27:21.731Z,8.67
2018-03-26T20:29:49.268Z,9.50
2018-03-26T20:32:16.777Z,8.03
2018-03-26T20:34:44.331Z,8.63
2018-03-26T20:37:11.853Z,9.33
2018-03-26T20:39:39.403Z,8.40
2018-03-26T20:42:07.076Z,9.23
2018-03-26T20:44:34.650Z,8.40
2018-03-26T20:47:02.237Z,9.33
2018-03-26T20:49:29.760Z,8.73
2018-03-26T20:51:57.281Z,9.57
2018-03-26T20:54:24.807Z,8.80
2018-03-26T20:56:52.336Z,9.03
2018-03-26T20:59:19.858Z,9.63
2018-03-26T21:01:47.384Z,10.20
2018-03-26T21:04:14.939Z,9.63
2018-03-26T21:06:42.473Z,9.63
2018-03-26T21:09:10.007Z,10.03
2018-03-26T21:11:37.525Z,10.10
2018-03-26T21:14:05.061Z,9.80
2018-03-26T21:16:32.581Z,9.73
2018-03-26T21:19:00.102Z,9.50
2018-03-26T21:21:27.628Z,9.30
2018-03-26T21:23:55.154Z,9.83
2018-03-26T21:26:22.684Z,9.50
2018-03-26T21:28:50.210Z,9.23
2018-03-26T21:31:17.735Z,9.67
2018-03-26T21:33:45.259Z,9.87
2018-03-26T21:36:12.776Z,9.70
2018-03-26T21:38:40.301Z,9.27
2018-03-26T21:41:07.825Z,9.40
2018-03-26T21:43:35.349Z,10.00
2018-03-26T21:46:02.874Z,10.53
2018-03-26T21:48:30.406Z,10.13
2018-03-26T21:50:57.931Z,9.07
2018-03-26T21:53:25.466Z,9.83
2018-03-26T21:55:52.985Z,9.30
2018-03-26T21:58:20.520Z,10.23
2018-03-26T22:00:48.042Z,9.60
2018-03-26T22:03:15.573Z,10.40
2018-03-26T22:05:43.098Z,9.60
2018-03-26T22:08:10.644Z,10.60
2018-03-26T22:10:38.166Z,10.13
2018-03-26T22:13:05.702Z,10.37
2018-03-26T22:15:33.236Z,10.93
2018-03-26T22:18:00.773Z,9.80
2018-03-26T22:20:28.301Z,10.40
2018-03-26T22:22:55.833Z,10.83
2018-03-26T22:25:23.369Z,10.30
2018-03-26T22:27:50.898Z,10.13
2018-03-26T22:30:18.417Z,10.90
2018-03-26T22:32:45.933Z,9.73
2018-03-26T22:35:13.452Z,9.73
2018-03-26T22:37:40.995Z,9.23
2018-03-26T22:40:08.523Z,10.13
2018-03-26T22:42:36.061Z,9.77
2018-03-26T22:45:03.586Z,8.97
2018-03-26T22:47:31.118Z,10.03
2018-03-26T22:49:58.630Z,9.60
2018-03-26T22:52:26.171Z,9.37
2018-03-26T22:54:53.728Z,9.83
2018-03-26T22:57:21.245Z,9.87
2018-03-26T22:59:48.770Z,8.53
2018-03-26T23:02:16.293Z,8.67
2018-03-26T23:04:43.823Z,7.90
2018-03-26T23:07:11.377Z,8.33
2018-03-26T23:09:38.897Z,7.50
2018-03-26T23:12:06.425Z,7.83
2018-03-26T23:14:33.965Z,7.50
2018-03-26T23:17:01.487Z,7.70
2018-03-26T23:19:29.019Z,7.70
2018-03-26T23:21:56.537Z,7.07
2018-03-26T23:24:24.068Z,7.37
2018-03-26T23:26:51.597Z,6.70
2018-03-26T23:29:19.113Z,7.03
2018-03-26T23:31:46.641Z,6.60
2018-03-26T23:34:14.173Z,6.37
2018-03-26T23:36:41.693Z,7.07
2018-03-26T23:39:09.216Z,6.97
2018-03-26T23:41:36.752Z,6.60
2018-03-26T23:44:04.272Z,6.70
2018-03-26T23:46:31.792Z,6.00
2018-03-26T23:48:59.323Z,6.20
2018-03-26T23:51:26.829Z,6.33
2018-03-26T23:53:54.354Z,5.83
2018-03-26T23:56:21.889Z,5.90
2018-03-26T23:58:49.412Z,6.00
